sensor_id;sensor_type;location;lat;lon;timestamp;pressure;altitude;pressure_sealevel;temperature;humidity
75945;BME280;64628;50.104;14.614;2023-12-20T00:01:28;98287.60;;;8.15;37.30
75945;BME280;64628;50.104;14.614;2023-12-20T00:03:53;98291.53;;;8.00;37.08
75945;BME280;64628;50.104;14.614;2023-12-20T00:06:19;98294.65;;;8.28;37.58
75945;BME280;64628;50.104;14.614;2023-12-20T00:08:45;98298.45;;;8.42;37.50
75945;BME280;64628;50.104;14.614;2023-12-20T00:11:10;98288.27;;;8.43;37.45
75945;BME280;64628;50.104;14.614;2023-12-20T00:13:36;98286.59;;;8.14;38.03
75945;BME280;64628;50.104;14.614;2023-12-20T00:16:01;98288.44;;;8.03;38.02
75945;BME280;64628;50.104;14.614;2023-12-20T00:18:26;98279.35;;;8.23;38.73
75945;BME280;64628;50.104;14.614;2023-12-20T00:20:52;98284.53;;;8.43;38.31
75945;BME280;64628;50.104;14.614;2023-12-20T00:23:17;98285.97;;;7.94;38.59
75945;BME280;64628;50.104;14.614;2023-12-20T00:25:43;98289.34;;;7.71;39.07
75945;BME280;64628;50.104;14.614;2023-12-20T00:28:08;98287.52;;;7.94;38.94
75945;BME280;64628;50.104;14.614;2023-12-20T00:30:33;98285.91;;;7.92;38.88
75945;BME280;64628;50.104;14.614;2023-12-20T00:32:58;98279.42;;;8.50;38.59
75945;BME280;64628;50.104;14.614;2023-12-20T00:35:24;98274.72;;;8.23;38.46
75945;BME280;64628;50.104;14.614;2023-12-20T00:37:49;98274.58;;;8.39;39.06
75945;BME280;64628;50.104;14.614;2023-12-20T00:40:14;98273.73;;;8.24;39.73
75945;BME280;64628;50.104;14.614;2023-12-20T00:42:40;98283.13;;;8.03;40.13
75945;BME280;64628;50.104;14.614;2023-12-20T00:45:06;98279.67;;;7.72;40.66
75945;BME280;64628;50.104;14.614;2023-12-20T00:47:31;98274.61;;;7.99;40.20
75945;BME280;64628;50.104;14.614;2023-12-20T00:49:57;98265.45;;;7.54;39.96
75945;BME280;64628;50.104;14.614;2023-12-20T00:52:22;98260.12;;;8.18;40.01
75945;BME280;64628;50.104;14.614;2023-12-20T00:54:48;98262.00;;;8.18;40.23
75945;BME280;64628;50.104;14.614;2023-12-20T00:57:13;98262.52;;;8.38;40.12
75945;BME280;64628;50.104;14.614;2023-12-20T00:59:38;98266.90;;;8.35;40.29
75945;BME280;64628;50.104;14.614;2023-12-20T01:02:04;98237.12;;;8.49;40.20
75945;BME280;64628;50.104;14.614;2023-12-20T01:04:29;98237.72;;;8.63;40.14
75945;BME280;64628;50.104;14.614;2023-12-20T01:06:55;98241.33;;;7.77;41.23
75945;BME280;64628;50.104;14.614;2023-12-20T01:09:21;98242.06;;;7.42;41.78
75945;BME280;64628;50.104;14.614;2023-12-20T01:11:46;98237.75;;;8.02;41.58
75945;BME280;64628;50.104;14.614;2023-12-20T01:14:11;98237.68;;;8.47;41.52
75945;BME280;64628;50.104;14.614;2023-12-20T01:16:37;98243.14;;;7.89;42.08
75945;BME280;64628;50.104;14.614;2023-12-20T01:19:02;98250.23;;;8.07;42.49
75945;BME280;64628;50.104;14.614;2023-12-20T01:21:28;98237.86;;;8.00;42.67
75945;BME280;64628;50.104;14.614;2023-12-20T01:23:53;98238.84;;;7.90;43.38
75945;BME280;64628;50.104;14.614;2023-12-20T01:26:19;98237.09;;;7.86;42.85
75945;BME280;64628;50.104;14.614;2023-12-20T01:28:44;98233.14;;;8.06;43.35
75945;BME280;64628;50.104;14.614;2023-12-20T01:31:09;98222.52;;;7.85;43.12
75945;BME280;64628;50.104;14.614;2023-12-20T01:33:35;98222.26;;;7.74;43.21
75945;BME280;64628;50.104;14.614;2023-12-20T01:36:00;98211.39;;;7.81;43.48
75945;BME280;64628;50.104;14.614;2023-12-20T01:38:26;98207.23;;;7.18;43.58
75945;BME280;64628;50.104;14.614;2023-12-20T01:40:52;98200.79;;;7.97;43.59
75945;BME280;64628;50.104;14.614;2023-12-20T01:43:17;98204.41;;;7.83;43.61
75945;BME280;64628;50.104;14.614;2023-12-20T01:45:42;98195.16;;;7.81;43.58
75945;BME280;64628;50.104;14.614;2023-12-20T01:48:08;98187.73;;;7.87;44.13
75945;BME280;64628;50.104;14.614;2023-12-20T01:50:36;98184.93;;;7.68;44.42
75945;BME280;64628;50.104;14.614;2023-12-20T01:53:00;98182.46;;;7.44;44.98
75945;BME280;64628;50.104;14.614;2023-12-20T01:55:24;98170.66;;;7.60;44.75
75945;BME280;64628;50.104;14.614;2023-12-20T01:57:50;98167.10;;;7.41;44.61
75945;BME280;64628;50.104;14.614;2023-12-20T02:00:15;98169.56;;;7.77;45.04
75945;BME280;64628;50.104;14.614;2023-12-20T02:02:40;98171.12;;;7.47;45.07
75945;BME280;64628;50.104;14.614;2023-12-20T02:05:06;98171.61;;;7.09;45.56
75945;BME280;64628;50.104;14.614;2023-12-20T02:07:31;98173.83;;;7.37;45.51
75945;BME280;64628;50.104;14.614;2023-12-20T02:12:22;98175.16;;;7.29;45.77
75945;BME280;64628;50.104;14.614;2023-12-20T02:14:48;98180.38;;;7.61;45.38
75945;BME280;64628;50.104;14.614;2023-12-20T02:17:15;98181.27;;;7.54;45.31
75945;BME280;64628;50.104;14.614;2023-12-20T02:19:39;98179.01;;;7.48;45.35
75945;BME280;64628;50.104;14.614;2023-12-20T02:22:06;98174.29;;;7.40;45.32
75945;BME280;64628;50.104;14.614;2023-12-20T02:24:31;98168.34;;;7.32;45.78
75945;BME280;64628;50.104;14.614;2023-12-20T02:26:56;98165.23;;;7.29;45.67
75945;BME280;64628;50.104;14.614;2023-12-20T02:29:22;98163.45;;;7.89;45.12
75945;BME280;64628;50.104;14.614;2023-12-20T02:31:47;98165.39;;;7.54;45.22
75945;BME280;64628;50.104;14.614;2023-12-20T02:34:13;98163.94;;;7.57;45.35
75945;BME280;64628;50.104;14.614;2023-12-20T02:36:38;98169.85;;;7.44;45.41
75945;BME280;64628;50.104;14.614;2023-12-20T02:39:03;98162.43;;;7.68;45.48
75945;BME280;64628;50.104;14.614;2023-12-20T02:41:28;98170.94;;;7.39;45.55
75945;BME280;64628;50.104;14.614;2023-12-20T02:43:54;98168.55;;;7.56;45.67
75945;BME280;64628;50.104;14.614;2023-12-20T02:46:19;98170.45;;;7.72;45.59
75945;BME280;64628;50.104;14.614;2023-12-20T02:48:44;98165.87;;;7.92;45.18
75945;BME280;64628;50.104;14.614;2023-12-20T02:51:10;98164.17;;;7.45;46.20
75945;BME280;64628;50.104;14.614;2023-12-20T02:53:35;98165.39;;;7.49;45.86
75945;BME280;64628;50.104;14.614;2023-12-20T02:56:01;98165.69;;;7.70;45.96
75945;BME280;64628;50.104;14.614;2023-12-20T02:58:26;98162.60;;;7.90;46.04
75945;BME280;64628;50.104;14.614;2023-12-20T03:00:52;98164.81;;;7.37;46.05
75945;BME280;64628;50.104;14.614;2023-12-20T03:03:17;98168.30;;;7.48;46.31
75945;BME280;64628;50.104;14.614;2023-12-20T03:05:43;98166.21;;;7.59;46.48
75945;BME280;64628;50.104;14.614;2023-12-20T03:08:08;98165.49;;;7.05;47.55
75945;BME280;64628;50.104;14.614;2023-12-20T03:10:33;98163.10;;;7.23;47.37
75945;BME280;64628;50.104;14.614;2023-12-20T03:12:59;98164.43;;;7.34;47.65
75945;BME280;64628;50.104;14.614;2023-12-20T03:15:24;98165.74;;;6.94;47.93
75945;BME280;64628;50.104;14.614;2023-12-20T03:17:49;98159.31;;;7.30;47.64
75945;BME280;64628;50.104;14.614;2023-12-20T03:20:15;98162.83;;;7.21;47.69
75945;BME280;64628;50.104;14.614;2023-12-20T03:22:41;98157.11;;;7.43;47.21
75945;BME280;64628;50.104;14.614;2023-12-20T03:25:07;98155.21;;;7.05;47.91
75945;BME280;64628;50.104;14.614;2023-12-20T03:27:32;98154.66;;;7.20;47.73
75945;BME280;64628;50.104;14.614;2023-12-20T03:29:57;98155.81;;;7.27;47.77
75945;BME280;64628;50.104;14.614;2023-12-20T03:32:22;98157.74;;;7.28;47.31
75945;BME280;64628;50.104;14.614;2023-12-20T03:34:48;98158.94;;;7.25;47.90
75945;BME280;64628;50.104;14.614;2023-12-20T03:37:14;98154.52;;;7.40;47.07
75945;BME280;64628;50.104;14.614;2023-12-20T03:39:39;98155.82;;;7.47;47.33
75945;BME280;64628;50.104;14.614;2023-12-20T03:42:05;98158.98;;;7.21;47.20
75945;BME280;64628;50.104;14.614;2023-12-20T03:44:31;98160.15;;;6.94;47.89
75945;BME280;64628;50.104;14.614;2023-12-20T03:46:56;98159.18;;;7.64;47.21
75945;BME280;64628;50.104;14.614;2023-12-20T03:49:21;98160.76;;;7.13;47.69
75945;BME280;64628;50.104;14.614;2023-12-20T03:51:46;98156.14;;;7.52;47.05
75945;BME280;64628;50.104;14.614;2023-12-20T03:54:11;98153.26;;;7.75;46.98
75945;BME280;64628;50.104;14.614;2023-12-20T03:56:36;98155.60;;;7.70;46.75
75945;BME280;64628;50.104;14.614;2023-12-20T03:59:02;98152.37;;;7.89;46.38
75945;BME280;64628;50.104;14.614;2023-12-20T04:01:27;98153.34;;;7.66;46.79
75945;BME280;64628;50.104;14.614;2023-12-20T04:06:18;98152.70;;;7.90;46.43
75945;BME280;64628;50.104;14.614;2023-12-20T04:08:44;98156.49;;;7.72;46.48
75945;BME280;64628;50.104;14.614;2023-12-20T04:11:09;98154.16;;;7.65;46.65
75945;BME280;64628;50.104;14.614;2023-12-20T04:13:35;98151.19;;;7.25;47.36
75945;BME280;64628;50.104;14.614;2023-12-20T04:16:01;98148.42;;;7.56;47.81
75945;BME280;64628;50.104;14.614;2023-12-20T04:18:26;98152.95;;;6.95;48.01
75945;BME280;64628;50.104;14.614;2023-12-20T04:20:51;98154.87;;;7.01;48.18
75945;BME280;64628;50.104;14.614;2023-12-20T04:23:17;98157.16;;;7.08;48.20
75945;BME280;64628;50.104;14.614;2023-12-20T04:25:43;98160.61;;;7.31;48.01
75945;BME280;64628;50.104;14.614;2023-12-20T04:28:08;98157.81;;;7.41;47.84
75945;BME280;64628;50.104;14.614;2023-12-20T04:30:34;98161.97;;;7.43;47.97
75945;BME280;64628;50.104;14.614;2023-12-20T04:32:59;98157.37;;;7.35;47.79
75945;BME280;64628;50.104;14.614;2023-12-20T04:35:24;98157.99;;;7.04;48.28
75945;BME280;64628;50.104;14.614;2023-12-20T04:37:50;98157.92;;;7.31;47.80
75945;BME280;64628;50.104;14.614;2023-12-20T04:40:15;98162.10;;;7.18;48.03
75945;BME280;64628;50.104;14.614;2023-12-20T04:42:41;98162.82;;;7.52;47.59
75945;BME280;64628;50.104;14.614;2023-12-20T04:45:07;98158.30;;;6.94;47.91
75945;BME280;64628;50.104;14.614;2023-12-20T04:47:32;98158.72;;;7.10;48.31
75945;BME280;64628;50.104;14.614;2023-12-20T04:49:57;98162.23;;;7.14;48.13
75945;BME280;64628;50.104;14.614;2023-12-20T04:52:22;98161.47;;;7.14;47.73
75945;BME280;64628;50.104;14.614;2023-12-20T04:54:48;98160.95;;;7.16;47.98
75945;BME280;64628;50.104;14.614;2023-12-20T04:57:13;98159.90;;;7.20;48.22
75945;BME280;64628;50.104;14.614;2023-12-20T04:59:38;98157.52;;;7.00;47.70
75945;BME280;64628;50.104;14.614;2023-12-20T05:02:04;98161.53;;;7.41;47.58
75945;BME280;64628;50.104;14.614;2023-12-20T05:04:29;98156.63;;;7.13;48.27
75945;BME280;64628;50.104;14.614;2023-12-20T05:06:55;98162.78;;;7.15;47.95
75945;BME280;64628;50.104;14.614;2023-12-20T05:09:21;98155.58;;;7.20;48.29
75945;BME280;64628;50.104;14.614;2023-12-20T05:11:47;98156.46;;;7.17;48.18
75945;BME280;64628;50.104;14.614;2023-12-20T05:14:12;98157.51;;;7.20;48.07
75945;BME280;64628;50.104;14.614;2023-12-20T05:16:37;98162.38;;;7.21;48.18
75945;BME280;64628;50.104;14.614;2023-12-20T05:19:03;98158.69;;;7.36;48.14
75945;BME280;64628;50.104;14.614;2023-12-20T05:21:28;98163.44;;;6.87;48.65
75945;BME280;64628;50.104;14.614;2023-12-20T05:23:53;98166.41;;;7.11;48.28
75945;BME280;64628;50.104;14.614;2023-12-20T05:26:19;98166.34;;;7.09;48.58
75945;BME280;64628;50.104;14.614;2023-12-20T05:28:45;98168.89;;;6.71;48.40
75945;BME280;64628;50.104;14.614;2023-12-20T05:31:10;98168.15;;;6.95;48.61
75945;BME280;64628;50.104;14.614;2023-12-20T05:33:36;98170.65;;;6.87;48.37
75945;BME280;64628;50.104;14.614;2023-12-20T05:36:01;98171.49;;;7.13;48.50
75945;BME280;64628;50.104;14.614;2023-12-20T05:38:27;98175.21;;;6.79;48.71
75945;BME280;64628;50.104;14.614;2023-12-20T05:40:52;98175.78;;;6.70;48.25
75945;BME280;64628;50.104;14.614;2023-12-20T05:43:18;98179.09;;;6.72;48.54
75945;BME280;64628;50.104;14.614;2023-12-20T05:45:43;98177.62;;;7.07;48.42
75945;BME280;64628;50.104;14.614;2023-12-20T05:48:09;98180.57;;;6.70;48.57
75945;BME280;64628;50.104;14.614;2023-12-20T05:50:34;98182.77;;;7.30;47.66
75945;BME280;64628;50.104;14.614;2023-12-20T05:53:00;98178.09;;;7.30;47.85
75945;BME280;64628;50.104;14.614;2023-12-20T05:55:25;98177.79;;;7.13;47.73
75945;BME280;64628;50.104;14.614;2023-12-20T05:57:50;98178.98;;;7.11;47.89
75945;BME280;64628;50.104;14.614;2023-12-20T06:00:17;98179.22;;;7.23;48.15
75945;BME280;64628;50.104;14.614;2023-12-20T06:02:41;98175.66;;;7.06;48.30
75945;BME280;64628;50.104;14.614;2023-12-20T06:05:07;98175.85;;;7.05;48.01
75945;BME280;64628;50.104;14.614;2023-12-20T06:07:33;98180.33;;;7.32;47.58
75945;BME280;64628;50.104;14.614;2023-12-20T06:09:58;98176.40;;;6.85;47.80
75945;BME280;64628;50.104;14.614;2023-12-20T06:12:23;98176.99;;;7.39;47.58
75945;BME280;64628;50.104;14.614;2023-12-20T06:14:49;98178.97;;;6.83;48.11
75945;BME280;64628;50.104;14.614;2023-12-20T06:17:14;98186.11;;;6.87;47.51
75945;BME280;64628;50.104;14.614;2023-12-20T06:19:39;98188.00;;;7.16;48.02
75945;BME280;64628;50.104;14.614;2023-12-20T06:22:05;98199.05;;;7.41;47.58
75945;BME280;64628;50.104;14.614;2023-12-20T06:24:30;98197.68;;;6.91;47.80
75945;BME280;64628;50.104;14.614;2023-12-20T06:26:56;98199.68;;;6.92;47.62
75945;BME280;64628;50.104;14.614;2023-12-20T06:29:22;98198.01;;;6.55;48.28
75945;BME280;64628;50.104;14.614;2023-12-20T06:31:47;98198.51;;;6.94;48.26
75945;BME280;64628;50.104;14.614;2023-12-20T06:34:13;98194.09;;;6.89;48.39
75945;BME280;64628;50.104;14.614;2023-12-20T06:36:38;98202.16;;;7.04;47.63
75945;BME280;64628;50.104;14.614;2023-12-20T06:39:03;98195.66;;;6.74;48.36
75945;BME280;64628;50.104;14.614;2023-12-20T06:41:29;98195.18;;;6.99;48.14
75945;BME280;64628;50.104;14.614;2023-12-20T06:43:54;98195.55;;;6.70;48.06
75945;BME280;64628;50.104;14.614;2023-12-20T06:46:20;98204.08;;;6.81;48.25
75945;BME280;64628;50.104;14.614;2023-12-20T06:48:46;98209.08;;;7.07;47.90
75945;BME280;64628;50.104;14.614;2023-12-20T06:51:12;98214.32;;;6.84;47.91
75945;BME280;64628;50.104;14.614;2023-12-20T06:53:37;98218.18;;;7.02;47.90
75945;BME280;64628;50.104;14.614;2023-12-20T06:56:03;98225.51;;;7.10;47.84
75945;BME280;64628;50.104;14.614;2023-12-20T06:58:28;98232.08;;;6.80;48.02
75945;BME280;64628;50.104;14.614;2023-12-20T07:00:53;98239.63;;;7.08;47.61
75945;BME280;64628;50.104;14.614;2023-12-20T07:03:19;98240.07;;;6.96;47.61
75945;BME280;64628;50.104;14.614;2023-12-20T07:05:45;98249.86;;;6.92;47.36
75945;BME280;64628;50.104;14.614;2023-12-20T07:08:10;98249.82;;;7.01;47.76
75945;BME280;64628;50.104;14.614;2023-12-20T07:10:36;98251.28;;;6.71;48.43
75945;BME280;64628;50.104;14.614;2023-12-20T07:13:01;98257.60;;;6.41;48.36
75945;BME280;64628;50.104;14.614;2023-12-20T07:15:27;98258.38;;;7.01;47.96
75945;BME280;64628;50.104;14.614;2023-12-20T07:17:53;98259.16;;;6.84;47.81
75945;BME280;64628;50.104;14.614;2023-12-20T07:20:18;98258.19;;;6.93;47.66
75945;BME280;64628;50.104;14.614;2023-12-20T07:22:43;98265.41;;;7.08;47.73
75945;BME280;64628;50.104;14.614;2023-12-20T07:25:09;98261.89;;;6.98;47.80
75945;BME280;64628;50.104;14.614;2023-12-20T07:27:34;98264.77;;;6.81;47.91
75945;BME280;64628;50.104;14.614;2023-12-20T07:30:00;98272.00;;;6.97;47.76
75945;BME280;64628;50.104;14.614;2023-12-20T07:32:25;98271.58;;;6.48;47.83
75945;BME280;64628;50.104;14.614;2023-12-20T07:34:51;98272.26;;;6.54;48.30
75945;BME280;64628;50.104;14.614;2023-12-20T07:37:16;98281.73;;;6.85;47.60
75945;BME280;64628;50.104;14.614;2023-12-20T07:39:42;98279.54;;;6.78;47.95
75945;BME280;64628;50.104;14.614;2023-12-20T07:42:08;98285.01;;;7.10;47.85
75945;BME280;64628;50.104;14.614;2023-12-20T07:44:34;98291.51;;;7.41;47.38
75945;BME280;64628;50.104;14.614;2023-12-20T07:46:59;98299.67;;;6.95;47.55
75945;BME280;64628;50.104;14.614;2023-12-20T07:49:24;98294.34;;;6.90;47.79
75945;BME280;64628;50.104;14.614;2023-12-20T07:51:50;98294.76;;;6.76;47.82
75945;BME280;64628;50.104;14.614;2023-12-20T07:54:16;98295.52;;;6.59;48.33
75945;BME280;64628;50.104;14.614;2023-12-20T07:56:41;98294.55;;;6.68;48.30
75945;BME280;64628;50.104;14.614;2023-12-20T07:59:07;98298.89;;;6.78;47.82
75945;BME280;64628;50.104;14.614;2023-12-20T08:01:32;98299.95;;;6.74;47.81
75945;BME280;64628;50.104;14.614;2023-12-20T08:03:58;98302.95;;;6.80;48.18
75945;BME280;64628;50.104;14.614;2023-12-20T08:06:23;98293.80;;;6.64;48.07
75945;BME280;64628;50.104;14.614;2023-12-20T08:08:49;98294.76;;;6.70;47.96
75945;BME280;64628;50.104;14.614;2023-12-20T08:11:15;98296.32;;;7.16;47.75
75945;BME280;64628;50.104;14.614;2023-12-20T08:13:40;98294.36;;;6.98;47.37
75945;BME280;64628;50.104;14.614;2023-12-20T08:16:06;98287.10;;;6.77;47.69
75945;BME280;64628;50.104;14.614;2023-12-20T08:18:31;98288.24;;;6.61;48.31
75945;BME280;64628;50.104;14.614;2023-12-20T08:20:57;98295.70;;;6.50;48.65
75945;BME280;64628;50.104;14.614;2023-12-20T08:23:22;98298.57;;;6.84;47.93
75945;BME280;64628;50.104;14.614;2023-12-20T08:25:48;98300.79;;;6.91;47.71
75945;BME280;64628;50.104;14.614;2023-12-20T08:28:13;98300.30;;;6.83;47.57
75945;BME280;64628;50.104;14.614;2023-12-20T08:30:38;98304.67;;;6.82;47.82
75945;BME280;64628;50.104;14.614;2023-12-20T08:33:06;98313.38;;;6.64;47.97
75945;BME280;64628;50.104;14.614;2023-12-20T08:35:29;98321.48;;;6.60;48.15
75945;BME280;64628;50.104;14.614;2023-12-20T08:37:56;98319.33;;;6.88;47.63
75945;BME280;64628;50.104;14.614;2023-12-20T08:40:21;98315.37;;;6.74;47.34
75945;BME280;64628;50.104;14.614;2023-12-20T08:42:47;98313.48;;;6.52;47.31
75945;BME280;64628;50.104;14.614;2023-12-20T08:45:12;98307.76;;;7.01;47.28
75945;BME280;64628;50.104;14.614;2023-12-20T08:47:38;98308.93;;;7.09;46.91
75945;BME280;64628;50.104;14.614;2023-12-20T08:50:04;98311.47;;;6.77;47.30
75945;BME280;64628;50.104;14.614;2023-12-20T08:52:29;98315.83;;;7.02;46.95
75945;BME280;64628;50.104;14.614;2023-12-20T08:54:55;98311.81;;;7.18;46.12
75945;BME280;64628;50.104;14.614;2023-12-20T08:57:20;98311.60;;;7.18;46.49
75945;BME280;64628;50.104;14.614;2023-12-20T08:59:46;98313.09;;;7.18;46.42
75945;BME280;64628;50.104;14.614;2023-12-20T09:02:11;98308.24;;;7.27;45.85
75945;BME280;64628;50.104;14.614;2023-12-20T09:04:37;98312.81;;;7.12;46.41
75945;BME280;64628;50.104;14.614;2023-12-20T09:07:03;98313.65;;;6.83;46.91
75945;BME280;64628;50.104;14.614;2023-12-20T09:09:28;98311.48;;;7.25;46.13
75945;BME280;64628;50.104;14.614;2023-12-20T09:11:54;98308.11;;;7.76;45.58
75945;BME280;64628;50.104;14.614;2023-12-20T09:14:19;98303.46;;;7.44;45.19
75945;BME280;64628;50.104;14.614;2023-12-20T09:16:45;98301.25;;;7.66;45.73
75945;BME280;64628;50.104;14.614;2023-12-20T09:19:11;98305.22;;;7.34;46.08
75945;BME280;64628;50.104;14.614;2023-12-20T09:21:36;98305.82;;;7.68;45.58
75945;BME280;64628;50.104;14.614;2023-12-20T09:24:01;98307.34;;;7.19;46.01
75945;BME280;64628;50.104;14.614;2023-12-20T09:26:27;98309.92;;;7.37;46.05
75945;BME280;64628;50.104;14.614;2023-12-20T09:28:52;98310.04;;;7.33;45.75
75945;BME280;64628;50.104;14.614;2023-12-20T09:31:18;98308.88;;;7.56;45.56
75945;BME280;64628;50.104;14.614;2023-12-20T09:33:43;98307.83;;;7.48;45.52
75945;BME280;64628;50.104;14.614;2023-12-20T09:36:09;98309.84;;;7.28;45.87
75945;BME280;64628;50.104;14.614;2023-12-20T09:38:35;98312.33;;;7.36;46.01
75945;BME280;64628;50.104;14.614;2023-12-20T09:41:01;98309.92;;;7.45;45.35
75945;BME280;64628;50.104;14.614;2023-12-20T09:43:26;98311.17;;;7.33;45.29
75945;BME280;64628;50.104;14.614;2023-12-20T09:45:54;98321.46;;;7.61;45.33
75945;BME280;64628;50.104;14.614;2023-12-20T09:48:18;98317.60;;;7.50;45.01
75945;BME280;64628;50.104;14.614;2023-12-20T09:50:43;98312.82;;;7.48;45.06
75945;BME280;64628;50.104;14.614;2023-12-20T09:53:10;98314.92;;;7.77;45.24
75945;BME280;64628;50.104;14.614;2023-12-20T09:55:34;98314.06;;;8.05;44.94
75945;BME280;64628;50.104;14.614;2023-12-20T09:58:00;98318.49;;;8.13;44.24
75945;BME280;64628;50.104;14.614;2023-12-20T10:00:25;98315.65;;;8.00;44.24
75945;BME280;64628;50.104;14.614;2023-12-20T10:02:56;98318.54;;;7.96;44.44
75945;BME280;64628;50.104;14.614;2023-12-20T10:05:17;98319.57;;;8.26;44.17
75945;BME280;64628;50.104;14.614;2023-12-20T10:07:42;98320.54;;;8.07;44.33
75945;BME280;64628;50.104;14.614;2023-12-20T10:10:08;98322.43;;;8.03;44.13
75945;BME280;64628;50.104;14.614;2023-12-20T10:12:33;98321.45;;;7.99;44.32
75945;BME280;64628;50.104;14.614;2023-12-20T10:14:58;98313.46;;;8.12;43.97
75945;BME280;64628;50.104;14.614;2023-12-20T10:17:24;98302.16;;;8.15;44.01
75945;BME280;64628;50.104;14.614;2023-12-20T10:19:49;98297.57;;;7.91;44.56
75945;BME280;64628;50.104;14.614;2023-12-20T10:22:15;98292.79;;;7.69;44.78
75945;BME280;64628;50.104;14.614;2023-12-20T10:24:40;98292.92;;;7.89;44.53
75945;BME280;64628;50.104;14.614;2023-12-20T10:27:07;98299.39;;;8.28;43.99
75945;BME280;64628;50.104;14.614;2023-12-20T10:29:33;98297.58;;;8.51;43.26
75945;BME280;64628;50.104;14.614;2023-12-20T10:31:57;98300.15;;;8.43;43.31
75945;BME280;64628;50.104;14.614;2023-12-20T10:34:22;98294.00;;;8.48;43.87
75945;BME280;64628;50.104;14.614;2023-12-20T10:36:48;98293.15;;;8.19;43.47
75945;BME280;64628;50.104;14.614;2023-12-20T10:39:14;98288.64;;;8.30;43.42
75945;BME280;64628;50.104;14.614;2023-12-20T10:41:40;98282.85;;;8.86;42.82
75945;BME280;64628;50.104;14.614;2023-12-20T10:44:05;98277.69;;;8.73;42.92
75945;BME280;64628;50.104;14.614;2023-12-20T10:46:30;98273.03;;;8.41;43.23
75945;BME280;64628;50.104;14.614;2023-12-20T10:48:56;98267.98;;;8.72;42.42
75945;BME280;64628;50.104;14.614;2023-12-20T10:51:22;98262.32;;;8.75;42.34
75945;BME280;64628;50.104;14.614;2023-12-20T10:53:47;98260.43;;;9.54;41.59
75945;BME280;64628;50.104;14.614;2023-12-20T10:56:15;98257.90;;;8.62;42.05
75945;BME280;64628;50.104;14.614;2023-12-20T10:58:41;98250.41;;;8.70;42.14
75945;BME280;64628;50.104;14.614;2023-12-20T11:01:04;98247.39;;;8.46;42.26
75945;BME280;64628;50.104;14.614;2023-12-20T11:03:34;98231.72;;;8.34;41.70
75945;BME280;64628;50.104;14.614;2023-12-20T11:05:59;98235.53;;;8.59;42.33
75945;BME280;64628;50.104;14.614;2023-12-20T11:08:25;98237.31;;;8.85;42.31
75945;BME280;64628;50.104;14.614;2023-12-20T11:10:54;98233.98;;;8.53;41.77
75945;BME280;64628;50.104;14.614;2023-12-20T11:13:15;98234.36;;;8.94;41.26
75945;BME280;64628;50.104;14.614;2023-12-20T11:15:36;98234.00;;;9.11;40.87
75945;BME280;64628;50.104;14.614;2023-12-20T11:18:02;98228.03;;;9.08;40.85
75945;BME280;64628;50.104;14.614;2023-12-20T11:20:35;98234.38;;;9.61;40.82
75945;BME280;64628;50.104;14.614;2023-12-20T11:22:53;98232.90;;;9.67;40.46
75945;BME280;64628;50.104;14.614;2023-12-20T11:25:18;98227.10;;;9.52;40.37
75945;BME280;64628;50.104;14.614;2023-12-20T11:27:43;98223.92;;;9.39;40.86
75945;BME280;64628;50.104;14.614;2023-12-20T11:30:10;98220.70;;;9.78;40.41
75945;BME280;64628;50.104;14.614;2023-12-20T11:32:35;98217.45;;;10.03;39.81
75945;BME280;64628;50.104;14.614;2023-12-20T11:35:01;98217.14;;;10.05;39.81
75945;BME280;64628;50.104;14.614;2023-12-20T11:37:29;98216.04;;;9.74;39.95
75945;BME280;64628;50.104;14.614;2023-12-20T11:39:55;98226.41;;;10.14;39.96
75945;BME280;64628;50.104;14.614;2023-12-20T11:42:16;98218.34;;;10.06;38.53
75945;BME280;64628;50.104;14.614;2023-12-20T11:44:42;98213.99;;;10.18;39.50
75945;BME280;64628;50.104;14.614;2023-12-20T11:47:07;98207.30;;;10.44;39.43
75945;BME280;64628;50.104;14.614;2023-12-20T11:51:58;98198.40;;;10.15;38.85
75945;BME280;64628;50.104;14.614;2023-12-20T11:54:23;98197.97;;;10.07;38.93
75945;BME280;64628;50.104;14.614;2023-12-20T11:56:49;98196.00;;;10.35;38.50
75945;BME280;64628;50.104;14.614;2023-12-20T11:59:15;98189.30;;;10.50;38.68
75945;BME280;64628;50.104;14.614;2023-12-20T12:01:40;98181.73;;;10.06;37.89
75945;BME280;64628;50.104;14.614;2023-12-20T12:04:06;98183.13;;;10.44;37.48
75945;BME280;64628;50.104;14.614;2023-12-20T12:06:31;98179.09;;;10.36;37.29
75945;BME280;64628;50.104;14.614;2023-12-20T12:08:56;98182.23;;;10.21;36.53
75945;BME280;64628;50.104;14.614;2023-12-20T12:11:22;98184.71;;;9.99;37.32
75945;BME280;64628;50.104;14.614;2023-12-20T12:13:47;98185.29;;;10.17;37.38
75945;BME280;64628;50.104;14.614;2023-12-20T12:16:16;98180.77;;;10.25;36.83
75945;BME280;64628;50.104;14.614;2023-12-20T12:18:39;98189.88;;;10.23;36.63
75945;BME280;64628;50.104;14.614;2023-12-20T12:21:04;98192.02;;;10.16;36.68
75945;BME280;64628;50.104;14.614;2023-12-20T12:23:29;98195.59;;;10.00;37.16
75945;BME280;64628;50.104;14.614;2023-12-20T12:25:55;98190.76;;;10.09;36.42
75945;BME280;64628;50.104;14.614;2023-12-20T12:28:20;98192.42;;;9.74;36.81
75945;BME280;64628;50.104;14.614;2023-12-20T12:33:11;98182.03;;;9.94;36.96
75945;BME280;64628;50.104;14.614;2023-12-20T12:35:36;98180.58;;;9.69;36.41
75945;BME280;64628;50.104;14.614;2023-12-20T12:38:02;98178.05;;;10.15;36.72
75945;BME280;64628;50.104;14.614;2023-12-20T12:40:27;98172.63;;;10.23;35.88
75945;BME280;64628;50.104;14.614;2023-12-20T12:42:52;98170.25;;;10.42;36.01
75945;BME280;64628;50.104;14.614;2023-12-20T12:45:18;98175.10;;;10.58;34.62
75945;BME280;64628;50.104;14.614;2023-12-20T12:47:43;98164.72;;;10.28;34.93
75945;BME280;64628;50.104;14.614;2023-12-20T12:50:09;98168.83;;;9.79;34.86
75945;BME280;64628;50.104;14.614;2023-12-20T12:52:34;98164.87;;;10.75;34.70
75945;BME280;64628;50.104;14.614;2023-12-20T12:54:59;98163.38;;;10.22;33.81
75945;BME280;64628;50.104;14.614;2023-12-20T12:57:25;98164.93;;;10.66;34.00
75945;BME280;64628;50.104;14.614;2023-12-20T12:59:51;98154.81;;;10.13;33.90